CES724 WMKK-ZGHA
Flight info
| Callsign | CES724 |
|---|---|
| Flight time | N/A |
| Altitude | 35000 |
| Route | PIBOS1B/14R PIBOS R208 IGARI/K0917F350 M765 BITOD M755 KISAN/N0495F350 M755 TIA N639 VILAO/K0913F350 N639 BESKI/K0906F370 N639 NAH Q3 NAKHA R474 TEBAK/K0902S1130 R474 WUY R343 ABTUD W227 RUKLI RUK1W |
| Aircraft | B77W/H-SDE1E2E3FGHIJ2J3J4J5M1RWXY/LB1D1 |
Departure
| Time | N/A |
|---|---|
| Airport | Kuala Lumpur International Airport (WMKK) |
Arrival
| Time | 2026-04-27 14:21 |
|---|---|
| Airport | Changsha Huanghua International Airport (ZGHA) |
| Time | Latitude | Longitude | Altitude | Speed | Heading |
|---|---|---|---|---|---|
| 2026-04-27 12:26 | 16.61836 | 105.96339 | 34853 ft | 478 kts | 5° |
| 2026-04-27 12:26 | 16.65111 | 105.96861 | 34860 ft | 479 kts | 5° |
| 2026-04-27 12:27 | 16.71773 | 105.97926 | 34865 ft | 477 kts | 5° |
| 2026-04-27 12:27 | 16.78381 | 105.98982 | 34870 ft | 478 kts | 5° |
| 2026-04-27 12:28 | 16.84963 | 106.00035 | 34862 ft | 477 kts | 5° |
| 2026-04-27 12:28 | 16.91601 | 106.01098 | 34858 ft | 477 kts | 5° |
| 2026-04-27 12:29 | 16.98179 | 106.02151 | 34858 ft | 478 kts | 5° |
| 2026-04-27 12:29 | 17.04828 | 106.03218 | 34857 ft | 477 kts | 4° |
| 2026-04-27 12:30 | 17.11416 | 106.04275 | 34862 ft | 477 kts | 4° |
| 2026-04-27 12:30 | 17.18031 | 106.05337 | 34868 ft | 478 kts | 4° |
| 2026-04-27 12:31 | 17.24626 | 106.06396 | 34870 ft | 477 kts | 4° |
| 2026-04-27 12:31 | 17.31242 | 106.07460 | 34883 ft | 478 kts | 4° |
| 2026-04-27 12:32 | 17.37836 | 106.08337 | 34892 ft | 474 kts | 358° |
| 2026-04-27 12:32 | 17.44449 | 106.08434 | 34898 ft | 474 kts | 356° |
| 2026-04-27 12:33 | 17.51035 | 106.08502 | 34903 ft | 474 kts | 356° |
| 2026-04-27 12:33 | 17.57704 | 106.08573 | 34889 ft | 474 kts | 356° |
| 2026-04-27 12:34 | 17.64285 | 106.08646 | 34872 ft | 474 kts | 356° |
| 2026-04-27 12:34 | 17.70949 | 106.08720 | 34861 ft | 474 kts | 356° |
| 2026-04-27 12:35 | 17.77603 | 106.08794 | 34847 ft | 475 kts | 356° |
| 2026-04-27 12:35 | 17.84252 | 106.08868 | 34844 ft | 475 kts | 356° |
| 2026-04-27 12:36 | 17.90931 | 106.08944 | 34836 ft | 475 kts | 356° |
| 2026-04-27 12:36 | 17.97584 | 106.09019 | 34825 ft | 476 kts | 356° |
| 2026-04-27 12:37 | 18.04184 | 106.09094 | 34810 ft | 475 kts | 356° |
| 2026-04-27 12:37 | 18.10877 | 106.09170 | 34799 ft | 475 kts | 356° |
| 2026-04-27 12:38 | 18.17516 | 106.09244 | 34799 ft | 475 kts | 355° |
| 2026-04-27 12:38 | 18.24145 | 106.09319 | 34795 ft | 476 kts | 356° |
| 2026-04-27 12:39 | 18.30776 | 106.09393 | 34795 ft | 476 kts | 355° |
| 2026-04-27 12:39 | 18.37446 | 106.09468 | 34796 ft | 476 kts | 356° |
| 2026-04-27 12:40 | 18.44076 | 106.09542 | 34797 ft | 476 kts | 355° |
| 2026-04-27 12:40 | 18.50772 | 106.09616 | 34797 ft | 476 kts | 355° |
| 2026-04-27 12:41 | 18.57401 | 106.09690 | 34798 ft | 476 kts | 355° |
| 2026-04-27 12:41 | 18.64051 | 106.09765 | 34800 ft | 476 kts | 355° |
| 2026-04-27 12:42 | 18.70700 | 106.09844 | 34802 ft | 476 kts | 355° |
| 2026-04-27 12:42 | 18.77410 | 106.09929 | 34803 ft | 477 kts | 355° |
| 2026-04-27 12:43 | 18.84033 | 106.10012 | 34806 ft | 476 kts | 355° |
| 2026-04-27 12:43 | 18.90725 | 106.10096 | 34806 ft | 477 kts | 355° |
| 2026-04-27 12:44 | 18.97370 | 106.10178 | 34806 ft | 477 kts | 355° |
| 2026-04-27 12:44 | 19.04019 | 106.10252 | 34807 ft | 476 kts | 355° |
| 2026-04-27 12:45 | 19.10677 | 106.10326 | 34807 ft | 478 kts | 355° |
| 2026-04-27 12:45 | 19.17404 | 106.10400 | 34805 ft | 478 kts | 355° |
| 2026-04-27 12:46 | 19.24067 | 106.10476 | 34801 ft | 477 kts | 355° |
| 2026-04-27 12:46 | 19.30732 | 106.10551 | 34800 ft | 477 kts | 355° |
| 2026-04-27 12:47 | 19.37431 | 106.10626 | 34800 ft | 478 kts | 355° |
| 2026-04-27 12:47 | 19.44065 | 106.10700 | 34786 ft | 478 kts | 355° |
| 2026-04-27 12:48 | 19.50741 | 106.10775 | 34793 ft | 479 kts | 355° |
| 2026-04-27 12:48 | 19.57432 | 106.10851 | 34781 ft | 477 kts | 355° |
| 2026-04-27 12:49 | 19.64076 | 106.10926 | 34788 ft | 479 kts | 355° |
| 2026-04-27 12:49 | 19.70813 | 106.11003 | 34779 ft | 478 kts | 355° |
| 2026-04-27 12:50 | 19.77456 | 106.11079 | 34792 ft | 478 kts | 355° |
| 2026-04-27 12:50 | 19.84176 | 106.11155 | 34792 ft | 478 kts | 355° |
| 2026-04-27 12:51 | 19.90854 | 106.11231 | 34791 ft | 478 kts | 355° |
| 2026-04-27 12:51 | 19.97540 | 106.11307 | 34794 ft | 479 kts | 355° |
| 2026-04-27 12:52 | 20.04296 | 106.11385 | 34789 ft | 478 kts | 355° |
| 2026-04-27 12:52 | 20.10986 | 106.11460 | 34791 ft | 479 kts | 355° |
| 2026-04-27 12:53 | 20.20937 | 106.11575 | 34789 ft | 477 kts | 354° |
| 2026-04-27 12:53 | 20.27588 | 106.11649 | 34789 ft | 481 kts | 354° |
| 2026-04-27 12:54 | 20.34304 | 106.11728 | 34790 ft | 477 kts | 354° |
| 2026-04-27 12:54 | 20.40973 | 106.12305 | 34796 ft | 488 kts | 5° |
| 2026-04-27 12:55 | 20.47642 | 106.13855 | 34802 ft | 492 kts | 6° |
| 2026-04-27 12:55 | 20.54367 | 106.15446 | 34804 ft | 491 kts | 6° |
| 2026-04-27 12:56 | 20.61069 | 106.17028 | 34806 ft | 493 kts | 6° |
| 2026-04-27 12:56 | 20.67742 | 106.18604 | 34803 ft | 491 kts | 6° |
| 2026-04-27 12:57 | 20.74427 | 106.20181 | 34809 ft | 491 kts | 6° |
| 2026-04-27 12:57 | 20.81135 | 106.21766 | 34809 ft | 491 kts | 6° |
| 2026-04-27 12:58 | 20.87839 | 106.23351 | 34812 ft | 493 kts | 6° |
| 2026-04-27 12:58 | 20.94515 | 106.24934 | 34815 ft | 492 kts | 6° |
| 2026-04-27 12:59 | 21.01216 | 106.26525 | 34812 ft | 490 kts | 6° |
| 2026-04-27 12:59 | 21.07904 | 106.28112 | 34819 ft | 493 kts | 7° |
| 2026-04-27 13:00 | 21.14640 | 106.29714 | 34822 ft | 493 kts | 7° |
| 2026-04-27 13:00 | 21.21349 | 106.31310 | 34829 ft | 493 kts | 7° |
| 2026-04-27 13:01 | 21.28071 | 106.32911 | 34832 ft | 493 kts | 7° |
| 2026-04-27 13:01 | 21.34802 | 106.34515 | 34834 ft | 492 kts | 7° |
| 2026-04-27 13:02 | 21.41461 | 106.36105 | 34834 ft | 490 kts | 7° |
| 2026-04-27 13:02 | 21.48148 | 106.37701 | 34834 ft | 491 kts | 8° |
| 2026-04-27 13:03 | 21.54847 | 106.39302 | 34841 ft | 493 kts | 8° |
| 2026-04-27 13:03 | 21.61523 | 106.40900 | 34854 ft | 490 kts | 8° |
| 2026-04-27 13:04 | 21.68269 | 106.42516 | 34869 ft | 492 kts | 8° |
| 2026-04-27 13:04 | 21.74988 | 106.44126 | 34878 ft | 490 kts | 9° |
| 2026-04-27 13:05 | 21.81677 | 106.45731 | 34879 ft | 488 kts | 9° |
| 2026-04-27 13:05 | 21.88333 | 106.47330 | 34879 ft | 488 kts | 9° |
| 2026-04-27 13:06 | 21.94964 | 106.49245 | 34870 ft | 493 kts | 19° |
| 2026-04-27 13:06 | 22.00909 | 106.53023 | 34888 ft | 503 kts | 36° |
| 2026-04-27 13:07 | 22.03674 | 106.55409 | 35282 ft | 506 kts | 37° |
| 2026-04-27 13:07 | 22.06418 | 106.57806 | 36046 ft | 501 kts | 37° |
| 2026-04-27 13:07 | 22.09122 | 106.60171 | 36761 ft | 496 kts | 36° |
| 2026-04-27 13:07 | 22.11710 | 106.62433 | 36950 ft | 500 kts | 36° |
| 2026-04-27 13:08 | 22.17125 | 106.67185 | 36937 ft | 500 kts | 39° |
| 2026-04-27 13:08 | 22.22135 | 106.72397 | 36948 ft | 501 kts | 42° |
| 2026-04-27 13:09 | 22.27126 | 106.77719 | 36944 ft | 499 kts | 42° |
| 2026-04-27 13:09 | 22.31984 | 106.83044 | 36936 ft | 501 kts | 49° |
| 2026-04-27 13:10 | 22.35634 | 106.89513 | 36938 ft | 506 kts | 67° |
| 2026-04-27 13:10 | 22.37466 | 106.96838 | 36941 ft | 506 kts | 78° |
| 2026-04-27 13:11 | 22.38821 | 107.04293 | 36939 ft | 508 kts | 78° |
| 2026-04-27 13:11 | 22.40170 | 107.11777 | 36940 ft | 508 kts | 78° |
| 2026-04-27 13:12 | 22.41521 | 107.19291 | 36939 ft | 508 kts | 78° |
| 2026-04-27 13:12 | 22.42866 | 107.26796 | 36943 ft | 507 kts | 78° |
| 2026-04-27 13:13 | 22.44222 | 107.34288 | 36943 ft | 509 kts | 78° |
| 2026-04-27 13:13 | 22.45591 | 107.41864 | 36946 ft | 509 kts | 77° |
| 2026-04-27 13:14 | 22.46946 | 107.49392 | 36951 ft | 509 kts | 78° |
| 2026-04-27 13:14 | 22.48306 | 107.56966 | 36951 ft | 508 kts | 77° |
| 2026-04-27 13:15 | 22.49654 | 107.64494 | 36945 ft | 509 kts | 78° |
| 2026-04-27 13:15 | 22.50972 | 107.71877 | 36938 ft | 508 kts | 78° |
| 2026-04-27 13:16 | 22.52296 | 107.79317 | 36927 ft | 508 kts | 78° |
| 2026-04-27 13:16 | 22.53632 | 107.86841 | 36933 ft | 508 kts | 78° |
| 2026-04-27 13:17 | 22.54958 | 107.94328 | 36934 ft | 511 kts | 78° |
| 2026-04-27 13:17 | 22.56299 | 108.01927 | 36934 ft | 511 kts | 78° |
| 2026-04-27 13:18 | 22.57923 | 108.09386 | 36938 ft | 507 kts | 68° |
| 2026-04-27 13:18 | 22.61236 | 108.16018 | 36937 ft | 502 kts | 49° |
| 2026-04-27 13:19 | 22.66152 | 108.21273 | 36948 ft | 493 kts | 35° |
| 2026-04-27 13:19 | 22.71583 | 108.25874 | 36941 ft | 491 kts | 34° |
| 2026-04-27 13:20 | 22.76988 | 108.30429 | 36943 ft | 492 kts | 34° |
| 2026-04-27 13:20 | 22.82447 | 108.35028 | 36946 ft | 493 kts | 34° |
| 2026-04-27 13:21 | 22.87892 | 108.39617 | 36946 ft | 493 kts | 34° |
| 2026-04-27 13:21 | 22.93339 | 108.44211 | 36950 ft | 493 kts | 34° |
| 2026-04-27 13:22 | 22.98781 | 108.48805 | 36957 ft | 492 kts | 34° |
| 2026-04-27 13:22 | 23.04225 | 108.53404 | 36960 ft | 492 kts | 34° |
| 2026-04-27 13:23 | 23.09655 | 108.57997 | 36960 ft | 492 kts | 34° |
| 2026-04-27 13:23 | 23.15053 | 108.62566 | 36958 ft | 493 kts | 34° |
| 2026-04-27 13:24 | 23.20264 | 108.66983 | 36939 ft | 494 kts | 34° |
| 2026-04-27 13:24 | 23.25690 | 108.71586 | 36935 ft | 493 kts | 34° |
| 2026-04-27 13:25 | 23.31095 | 108.76163 | 36940 ft | 493 kts | 34° |
| 2026-04-27 13:25 | 23.36569 | 108.80803 | 36941 ft | 493 kts | 34° |
| 2026-04-27 13:26 | 23.42006 | 108.85418 | 36943 ft | 493 kts | 34° |
| 2026-04-27 13:26 | 23.47433 | 108.90028 | 36943 ft | 494 kts | 34° |
| 2026-04-27 13:27 | 23.52846 | 108.94633 | 36939 ft | 493 kts | 34° |
| 2026-04-27 13:27 | 23.58314 | 108.99287 | 36939 ft | 493 kts | 34° |
| 2026-04-27 13:28 | 23.63759 | 109.03928 | 36941 ft | 495 kts | 34° |
| 2026-04-27 13:28 | 23.69206 | 109.08577 | 36942 ft | 493 kts | 34° |
| 2026-04-27 13:29 | 23.74621 | 109.13203 | 36949 ft | 492 kts | 34° |
| 2026-04-27 13:29 | 23.80189 | 109.17645 | 36955 ft | 493 kts | 30° |
| 2026-04-27 13:30 | 23.85926 | 109.21766 | 36953 ft | 491 kts | 30° |
| 2026-04-27 13:30 | 23.91606 | 109.25876 | 36958 ft | 492 kts | 30° |
| 2026-04-27 13:31 | 23.97323 | 109.30039 | 36971 ft | 491 kts | 30° |
| 2026-04-27 13:31 | 24.03076 | 109.34243 | 36970 ft | 492 kts | 30° |
| 2026-04-27 13:32 | 24.08792 | 109.38432 | 36977 ft | 491 kts | 30° |
| 2026-04-27 13:32 | 24.14331 | 109.42497 | 36984 ft | 492 kts | 30° |
| 2026-04-27 13:33 | 24.19930 | 109.46613 | 36988 ft | 491 kts | 30° |
| 2026-04-27 13:33 | 24.25624 | 109.50803 | 36992 ft | 493 kts | 30° |
| 2026-04-27 13:34 | 24.31296 | 109.54983 | 36991 ft | 492 kts | 30° |
| 2026-04-27 13:34 | 24.37014 | 109.59202 | 36991 ft | 492 kts | 30° |
| 2026-04-27 13:35 | 24.42737 | 109.63436 | 36989 ft | 492 kts | 30° |
| 2026-04-27 13:35 | 24.48347 | 109.67598 | 36980 ft | 495 kts | 30° |
| 2026-04-27 13:36 | 24.53784 | 109.71636 | 36983 ft | 493 kts | 30° |
| 2026-04-27 13:36 | 24.59467 | 109.75861 | 36982 ft | 494 kts | 30° |
| 2026-04-27 13:37 | 24.65145 | 109.80087 | 36987 ft | 493 kts | 30° |
| 2026-04-27 13:37 | 24.70861 | 109.84335 | 36989 ft | 492 kts | 30° |
| 2026-04-27 13:38 | 24.76559 | 109.88551 | 37001 ft | 494 kts | 30° |
| 2026-04-27 13:38 | 24.82281 | 109.92792 | 36995 ft | 492 kts | 29° |
| 2026-04-27 13:39 | 24.88007 | 109.97040 | 36994 ft | 492 kts | 30° |
| 2026-04-27 13:39 | 24.93692 | 110.01263 | 36986 ft | 492 kts | 29° |
| 2026-04-27 13:40 | 24.99399 | 110.05507 | 36981 ft | 491 kts | 29° |
| 2026-04-27 13:40 | 25.05094 | 110.09747 | 36989 ft | 493 kts | 29° |
| 2026-04-27 13:41 | 25.10798 | 110.13999 | 36993 ft | 491 kts | 30° |
| 2026-04-27 13:41 | 25.16305 | 110.18109 | 37000 ft | 494 kts | 30° |
| 2026-04-27 13:42 | 25.21837 | 110.22240 | 37003 ft | 491 kts | 29° |
| 2026-04-27 13:42 | 25.27540 | 110.26473 | 37001 ft | 493 kts | 29° |
| 2026-04-27 13:43 | 25.33197 | 110.30677 | 37002 ft | 489 kts | 29° |
| 2026-04-27 13:43 | 25.38892 | 110.34913 | 37017 ft | 491 kts | 29° |
| 2026-04-27 13:44 | 25.44587 | 110.39148 | 37035 ft | 491 kts | 29° |
| 2026-04-27 13:44 | 25.50308 | 110.43357 | 37054 ft | 489 kts | 28° |
| 2026-04-27 13:45 | 25.56013 | 110.47557 | 37065 ft | 491 kts | 28° |
| 2026-04-27 13:45 | 25.61773 | 110.51598 | 37061 ft | 488 kts | 27° |
| 2026-04-27 13:46 | 25.67531 | 110.55568 | 37045 ft | 490 kts | 27° |
| 2026-04-27 13:46 | 25.73343 | 110.59592 | 37037 ft | 486 kts | 27° |
| 2026-04-27 13:47 | 25.79140 | 110.63557 | 37034 ft | 487 kts | 26° |
| 2026-04-27 13:47 | 25.84908 | 110.67445 | 37047 ft | 488 kts | 26° |
| 2026-04-27 13:48 | 25.90470 | 110.71204 | 37071 ft | 487 kts | 26° |
| 2026-04-27 13:48 | 25.96256 | 110.75122 | 37109 ft | 486 kts | 26° |
| 2026-04-27 13:49 | 26.02025 | 110.79035 | 37125 ft | 484 kts | 26° |
| 2026-04-27 13:49 | 26.07778 | 110.82940 | 37078 ft | 486 kts | 26° |
| 2026-04-27 13:50 | 26.13472 | 110.86795 | 37057 ft | 484 kts | 26° |
| 2026-04-27 13:50 | 26.19081 | 110.90596 | 37033 ft | 486 kts | 26° |
| 2026-04-27 13:51 | 26.24761 | 110.94452 | 37022 ft | 485 kts | 26° |
| 2026-04-27 13:51 | 26.30551 | 110.98386 | 37020 ft | 486 kts | 26° |
| 2026-04-27 13:52 | 26.36306 | 111.02303 | 37023 ft | 483 kts | 26° |
| 2026-04-27 13:52 | 26.42074 | 111.06231 | 37031 ft | 485 kts | 26° |
| 2026-04-27 13:53 | 26.50739 | 111.12143 | 37037 ft | 486 kts | 26° |
| 2026-04-27 13:54 | 26.56542 | 111.16108 | 37039 ft | 486 kts | 27° |
| 2026-04-27 13:54 | 26.62266 | 111.20153 | 37035 ft | 487 kts | 29° |
| 2026-04-27 13:55 | 26.67931 | 111.24322 | 37039 ft | 487 kts | 28° |
| 2026-04-27 13:55 | 26.73609 | 111.28495 | 37030 ft | 487 kts | 28° |
| 2026-04-27 13:56 | 26.79260 | 111.32646 | 37018 ft | 488 kts | 29° |
| 2026-04-27 13:56 | 26.84965 | 111.36840 | 37014 ft | 486 kts | 29° |
| 2026-04-27 13:57 | 26.90637 | 111.41012 | 37012 ft | 487 kts | 29° |
| 2026-04-27 13:57 | 26.96417 | 111.44991 | 37009 ft | 485 kts | 26° |
| 2026-04-27 13:58 | 27.02234 | 111.48776 | 37014 ft | 482 kts | 26° |
| 2026-04-27 13:58 | 27.05141 | 111.50676 | 36856 ft | 479 kts | 26° |
| 2026-04-27 13:58 | 27.08060 | 111.52588 | 36385 ft | 483 kts | 26° |
| 2026-04-27 13:58 | 27.10867 | 111.54430 | 35893 ft | 487 kts | 26° |
| 2026-04-27 13:59 | 27.13845 | 111.56387 | 35521 ft | 489 kts | 27° |
| 2026-04-27 13:59 | 27.16763 | 111.58309 | 35281 ft | 488 kts | 26° |
| 2026-04-27 13:59 | 27.19678 | 111.60265 | 35073 ft | 488 kts | 28° |
| 2026-04-27 13:59 | 27.22428 | 111.62163 | 34805 ft | 489 kts | 28° |
| 2026-04-27 14:00 | 27.25344 | 111.64184 | 34298 ft | 487 kts | 28° |
| 2026-04-27 14:00 | 27.28106 | 111.66097 | 33462 ft | 487 kts | 28° |
| 2026-04-27 14:00 | 27.30971 | 111.68081 | 32664 ft | 487 kts | 28° |
| 2026-04-27 14:00 | 27.33765 | 111.70016 | 31881 ft | 488 kts | 29° |
| 2026-04-27 14:01 | 27.36576 | 111.71963 | 31075 ft | 494 kts | 29° |
| 2026-04-27 14:01 | 27.39543 | 111.74017 | 30404 ft | 501 kts | 29° |
| 2026-04-27 14:01 | 27.42502 | 111.76070 | 29946 ft | 497 kts | 29° |
| 2026-04-27 14:01 | 27.45435 | 111.78105 | 29439 ft | 496 kts | 29° |
| 2026-04-27 14:02 | 27.48385 | 111.80153 | 28889 ft | 493 kts | 29° |
| 2026-04-27 14:02 | 27.51305 | 111.82182 | 28335 ft | 490 kts | 29° |
| 2026-04-27 14:02 | 27.54176 | 111.84177 | 27768 ft | 486 kts | 29° |
| 2026-04-27 14:02 | 27.57039 | 111.86169 | 27190 ft | 482 kts | 29° |
| 2026-04-27 14:03 | 27.59900 | 111.88160 | 26592 ft | 478 kts | 30° |
| 2026-04-27 14:03 | 27.62725 | 111.90126 | 26000 ft | 474 kts | 30° |
| 2026-04-27 14:03 | 27.65408 | 111.92271 | 25398 ft | 472 kts | 39° |
| 2026-04-27 14:03 | 27.67562 | 111.94993 | 24801 ft | 470 kts | 56° |
| 2026-04-27 14:04 | 27.68971 | 111.98312 | 24234 ft | 466 kts | 73° |
| 2026-04-27 14:04 | 27.69480 | 112.01883 | 23729 ft | 460 kts | 90° |
| 2026-04-27 14:04 | 27.69290 | 112.05454 | 23349 ft | 450 kts | 96° |
| 2026-04-27 14:04 | 27.68976 | 112.08903 | 23060 ft | 440 kts | 96° |
| 2026-04-27 14:05 | 27.68649 | 112.12339 | 22825 ft | 452 kts | 96° |
| 2026-04-27 14:05 | 27.68310 | 112.15887 | 22564 ft | 456 kts | 96° |
| 2026-04-27 14:05 | 27.67972 | 112.19420 | 22311 ft | 453 kts | 96° |
| 2026-04-27 14:05 | 27.67634 | 112.22966 | 22053 ft | 450 kts | 96° |
| 2026-04-27 14:06 | 27.67300 | 112.26482 | 21795 ft | 449 kts | 96° |
| 2026-04-27 14:06 | 27.66969 | 112.29960 | 21540 ft | 449 kts | 96° |
| 2026-04-27 14:06 | 27.66638 | 112.33448 | 21280 ft | 448 kts | 97° |
| 2026-04-27 14:06 | 27.66307 | 112.36935 | 21013 ft | 445 kts | 97° |
| 2026-04-27 14:07 | 27.65978 | 112.40401 | 20754 ft | 444 kts | 96° |
| 2026-04-27 14:07 | 27.65652 | 112.43838 | 20500 ft | 443 kts | 96° |
| 2026-04-27 14:07 | 27.65322 | 112.47330 | 20240 ft | 442 kts | 97° |
| 2026-04-27 14:07 | 27.64997 | 112.50776 | 19982 ft | 440 kts | 96° |
| 2026-04-27 14:08 | 27.64675 | 112.54183 | 19731 ft | 439 kts | 96° |
| 2026-04-27 14:08 | 27.64353 | 112.57604 | 19465 ft | 438 kts | 97° |
| 2026-04-27 14:08 | 27.64028 | 112.61038 | 19235 ft | 437 kts | 96° |
| 2026-04-27 14:08 | 27.63714 | 112.64387 | 19154 ft | 435 kts | 96° |
| 2026-04-27 14:09 | 27.63402 | 112.67703 | 19141 ft | 435 kts | 97° |
| 2026-04-27 14:09 | 27.63119 | 112.70952 | 19079 ft | 427 kts | 93° |
| 2026-04-27 14:09 | 27.63193 | 112.74206 | 18760 ft | 407 kts | 82° |
| 2026-04-27 14:09 | 27.63728 | 112.77266 | 18423 ft | 389 kts | 73° |
| 2026-04-27 14:10 | 27.64654 | 112.80051 | 18203 ft | 369 kts | 63° |
| 2026-04-27 14:10 | 27.65885 | 112.82521 | 17967 ft | 351 kts | 54° |
| 2026-04-27 14:10 | 27.67324 | 112.84630 | 17716 ft | 336 kts | 46° |
| 2026-04-27 14:10 | 27.68970 | 112.86499 | 17262 ft | 330 kts | 41° |
| 2026-04-27 14:11 | 27.70616 | 112.88250 | 16691 ft | 326 kts | 41° |
| 2026-04-27 14:11 | 27.72230 | 112.89966 | 15821 ft | 321 kts | 41° |
| 2026-04-27 14:11 | 27.73859 | 112.91695 | 14833 ft | 322 kts | 41° |
| 2026-04-27 14:11 | 27.75468 | 112.93406 | 14021 ft | 316 kts | 41° |
| 2026-04-27 14:12 | 27.77055 | 112.95093 | 13202 ft | 311 kts | 41° |
| 2026-04-27 14:12 | 27.78628 | 112.96766 | 12329 ft | 309 kts | 41° |
| 2026-04-27 14:12 | 27.80164 | 112.98400 | 11526 ft | 304 kts | 41° |
| 2026-04-27 14:12 | 27.81679 | 113.00012 | 10706 ft | 301 kts | 41° |
| 2026-04-27 14:13 | 27.83201 | 113.01633 | 9816 ft | 300 kts | 41° |
| 2026-04-27 14:13 | 27.84689 | 113.03217 | 8961 ft | 297 kts | 42° |
| 2026-04-27 14:13 | 27.86187 | 113.04812 | 8123 ft | 294 kts | 43° |
| 2026-04-27 14:13 | 27.87663 | 113.06385 | 7287 ft | 292 kts | 43° |
| 2026-04-27 14:14 | 27.89134 | 113.07953 | 6494 ft | 288 kts | 44° |
| 2026-04-27 14:14 | 27.90559 | 113.09472 | 5992 ft | 273 kts | 44° |
| 2026-04-27 14:14 | 27.91869 | 113.10868 | 5829 ft | 246 kts | 44° |
| 2026-04-27 14:14 | 27.93063 | 113.12216 | 5315 ft | 239 kts | 57° |
| 2026-04-27 14:15 | 27.93684 | 113.13899 | 5017 ft | 234 kts | 81° |
| 2026-04-27 14:15 | 27.93913 | 113.15727 | 4738 ft | 233 kts | 89° |
| 2026-04-27 14:15 | 27.94025 | 113.17540 | 4460 ft | 228 kts | 90° |
| 2026-04-27 14:15 | 27.94112 | 113.19318 | 4208 ft | 227 kts | 91° |
| 2026-04-27 14:16 | 27.94239 | 113.21075 | 3935 ft | 226 kts | 80° |
| 2026-04-27 14:16 | 27.94992 | 113.22642 | 3666 ft | 227 kts | 46° |
| 2026-04-27 14:16 | 27.96348 | 113.23484 | 3486 ft | 218 kts | 11° |
| 2026-04-27 14:16 | 27.97784 | 113.23614 | 3450 ft | 196 kts | 0° |
| 2026-04-27 14:17 | 27.99123 | 113.23578 | 3415 ft | 186 kts | 357° |
| 2026-04-27 14:17 | 28.00421 | 113.23505 | 3352 ft | 185 kts | 356° |
| 2026-04-27 14:17 | 28.01700 | 113.23427 | 3287 ft | 184 kts | 356° |
| 2026-04-27 14:17 | 28.03000 | 113.23344 | 3069 ft | 184 kts | 356° |
| 2026-04-27 14:18 | 28.04253 | 113.23264 | 2826 ft | 176 kts | 357° |
| 2026-04-27 14:18 | 28.05460 | 113.23188 | 2600 ft | 168 kts | 357° |
| 2026-04-27 14:18 | 28.06622 | 113.23115 | 2379 ft | 166 kts | 357° |
| 2026-04-27 14:18 | 28.07777 | 113.23045 | 2159 ft | 164 kts | 357° |
| 2026-04-27 14:19 | 28.08903 | 113.22977 | 1939 ft | 163 kts | 357° |
| 2026-04-27 14:19 | 28.10003 | 113.22909 | 1723 ft | 162 kts | 357° |
| 2026-04-27 14:19 | 28.11165 | 113.22837 | 1496 ft | 161 kts | 357° |
| 2026-04-27 14:19 | 28.12279 | 113.22768 | 1273 ft | 158 kts | 357° |
| 2026-04-27 14:20 | 28.13109 | 113.22721 | 1101 ft | 157 kts | 358° |
| 2026-04-27 14:20 | 28.14136 | 113.22655 | 886 ft | 155 kts | 358° |
| 2026-04-27 14:20 | 28.15171 | 113.22587 | 682 ft | 152 kts | 358° |
| 2026-04-27 14:20 | 28.16216 | 113.22527 | 479 ft | 150 kts | 359° |
| 2026-04-27 14:21 | 28.17261 | 113.22464 | 306 ft | 149 kts | 358° |
| 2026-04-27 14:21 | 28.18262 | 113.22406 | 233 ft | 126 kts | 358° |
| 2026-04-27 14:21 | 28.18955 | 113.22361 | 233 ft | 73 kts | 356° |
| 2026-04-27 14:21 | 28.19286 | 113.22341 | 233 ft | 29 kts | 357° |
| 2026-04-27 14:22 | 28.19458 | 113.22315 | 233 ft | 23 kts | 345° |
| 2026-04-27 14:22 | 28.19599 | 113.22244 | 233 ft | 21 kts | 330° |
| 2026-04-27 14:22 | 28.19723 | 113.22163 | 233 ft | 19 kts | 330° |
| 2026-04-27 14:22 | 28.19847 | 113.22115 | 233 ft | 18 kts | 356° |
| 2026-04-27 14:23 | 28.19968 | 113.22108 | 233 ft | 16 kts | 357° |
| 2026-04-27 14:23 | 28.20079 | 113.22101 | 233 ft | 15 kts | 357° |
| 2026-04-27 14:23 | 28.20183 | 113.22094 | 233 ft | 14 kts | 356° |
| 2026-04-27 14:23 | 28.20290 | 113.22087 | 233 ft | 15 kts | 357° |
| 2026-04-27 14:24 | 28.20404 | 113.22080 | 233 ft | 16 kts | 356° |
| 2026-04-27 14:24 | 28.20520 | 113.22073 | 233 ft | 13 kts | 357° |
| 2026-04-27 14:24 | 28.20589 | 113.22063 | 233 ft | 9 kts | 329° |
| 2026-04-27 14:24 | 28.20606 | 113.21989 | 233 ft | 11 kts | 267° |
| 2026-04-27 14:25 | 28.20605 | 113.21892 | 233 ft | 13 kts | 276° |
| 2026-04-27 14:25 | 28.20605 | 113.21783 | 233 ft | 14 kts | 266° |
| 2026-04-27 14:25 | 28.20591 | 113.21703 | 233 ft | 10 kts | 229° |
| 2026-04-27 14:25 | 28.20515 | 113.21690 | 233 ft | 12 kts | 178° |
| 2026-04-27 14:26 | 28.20421 | 113.21695 | 233 ft | 14 kts | 176° |
| 2026-04-27 14:26 | 28.20316 | 113.21702 | 233 ft | 15 kts | 176° |
| 2026-04-27 14:26 | 28.20203 | 113.21709 | 233 ft | 17 kts | 176° |
| 2026-04-27 14:26 | 28.20080 | 113.21717 | 233 ft | 18 kts | 176° |
| 2026-04-27 14:27 | 28.19949 | 113.21724 | 233 ft | 19 kts | 177° |
| 2026-04-27 14:27 | 28.19812 | 113.21733 | 233 ft | 20 kts | 176° |
| 2026-04-27 14:27 | 28.19669 | 113.21742 | 233 ft | 20 kts | 177° |
| 2026-04-27 14:27 | 28.19521 | 113.21751 | 233 ft | 21 kts | 176° |
| 2026-04-27 14:28 | 28.19368 | 113.21761 | 233 ft | 22 kts | 176° |
| 2026-04-27 14:28 | 28.19209 | 113.21770 | 233 ft | 23 kts | 176° |
| 2026-04-27 14:28 | 28.19049 | 113.21780 | 233 ft | 22 kts | 176° |
| 2026-04-27 14:28 | 28.18946 | 113.21787 | 233 ft | 10 kts | 176° |
| 2026-04-27 14:29 | 28.18891 | 113.21760 | 233 ft | 9 kts | 241° |
| 2026-04-27 14:29 | 28.18877 | 113.21690 | 233 ft | 8 kts | 250° |
| 2026-04-27 14:29 | 28.18837 | 113.21639 | 233 ft | 8 kts | 219° |
| 2026-04-27 14:29 | 28.18810 | 113.21615 | 233 ft | 4 kts | 218° |
| 2026-04-27 14:30 | 28.18801 | 113.21606 | 233 ft | 0 kts | 218° |